sensor_id;sensor_type;location;lat;lon;timestamp;pressure;altitude;pressure_sealevel;temperature
71640;BMP280;60912;48.968;10.124;2024-03-29T00:00:40;94993.72;;;5.18
71640;BMP280;60912;48.968;10.124;2024-03-29T00:03:06;94985.72;;;5.20
71640;BMP280;60912;48.968;10.124;2024-03-29T00:05:33;94995.19;;;5.27
71640;BMP280;60912;48.968;10.124;2024-03-29T00:07:59;94990.41;;;5.12
71640;BMP280;60912;48.968;10.124;2024-03-29T00:10:24;94978.03;;;5.11
71640;BMP280;60912;48.968;10.124;2024-03-29T00:12:50;94977.16;;;5.16
71640;BMP280;60912;48.968;10.124;2024-03-29T00:15:15;94980.63;;;5.17
71640;BMP280;60912;48.968;10.124;2024-03-29T00:17:40;94959.66;;;5.12
71640;BMP280;60912;48.968;10.124;2024-03-29T00:20:06;94976.97;;;5.14
71640;BMP280;60912;48.968;10.124;2024-03-29T00:22:32;94988.41;;;5.05
71640;BMP280;60912;48.968;10.124;2024-03-29T00:24:57;94981.09;;;5.00
71640;BMP280;60912;48.968;10.124;2024-03-29T00:27:22;94984.59;;;5.08
71640;BMP280;60912;48.968;10.124;2024-03-29T00:29:51;94979.50;;;5.20
71640;BMP280;60912;48.968;10.124;2024-03-29T00:32:18;94973.34;;;5.27
71640;BMP280;60912;48.968;10.124;2024-03-29T00:34:44;94964.63;;;5.28
71640;BMP280;60912;48.968;10.124;2024-03-29T00:37:10;94963.34;;;5.30
71640;BMP280;60912;48.968;10.124;2024-03-29T00:39:36;94957.53;;;5.25
71640;BMP280;60912;48.968;10.124;2024-03-29T00:42:01;94948.75;;;5.19
71640;BMP280;60912;48.968;10.124;2024-03-29T00:44:26;94935.47;;;5.23
71640;BMP280;60912;48.968;10.124;2024-03-29T00:46:52;94934.75;;;5.31
71640;BMP280;60912;48.968;10.124;2024-03-29T00:49:17;94935.13;;;5.27
71640;BMP280;60912;48.968;10.124;2024-03-29T00:51:44;94920.56;;;5.24
71640;BMP280;60912;48.968;10.124;2024-03-29T00:54:09;94907.09;;;5.19
71640;BMP280;60912;48.968;10.124;2024-03-29T00:56:35;94902.72;;;5.16
71640;BMP280;60912;48.968;10.124;2024-03-29T00:59:00;94897.78;;;5.14
71640;BMP280;60912;48.968;10.124;2024-03-29T01:01:25;94885.22;;;5.11
71640;BMP280;60912;48.968;10.124;2024-03-29T01:03:50;94883.06;;;5.17
71640;BMP280;60912;48.968;10.124;2024-03-29T01:06:17;94900.19;;;5.25
71640;BMP280;60912;48.968;10.124;2024-03-29T01:08:42;94887.97;;;5.34
71640;BMP280;60912;48.968;10.124;2024-03-29T01:11:08;94905.47;;;5.39
71640;BMP280;60912;48.968;10.124;2024-03-29T01:13:33;94908.53;;;5.35
71640;BMP280;60912;48.968;10.124;2024-03-29T01:15:59;94901.28;;;5.38
71640;BMP280;60912;48.968;10.124;2024-03-29T01:18:24;94912.75;;;5.36
71640;BMP280;60912;48.968;10.124;2024-03-29T01:20:49;94913.28;;;5.35
71640;BMP280;60912;48.968;10.124;2024-03-29T01:23:14;94898.19;;;5.41
71640;BMP280;60912;48.968;10.124;2024-03-29T01:25:40;94887.06;;;5.47
71640;BMP280;60912;48.968;10.124;2024-03-29T01:28:05;94884.66;;;5.58
71640;BMP280;60912;48.968;10.124;2024-03-29T01:30:31;94879.97;;;5.66
71640;BMP280;60912;48.968;10.124;2024-03-29T01:32:56;94878.31;;;5.71
71640;BMP280;60912;48.968;10.124;2024-03-29T01:35:22;94880.09;;;5.76
71640;BMP280;60912;48.968;10.124;2024-03-29T01:37:47;94871.00;;;5.81
71640;BMP280;60912;48.968;10.124;2024-03-29T01:40:12;94874.63;;;5.84
71640;BMP280;60912;48.968;10.124;2024-03-29T01:42:38;94880.84;;;5.84
71640;BMP280;60912;48.968;10.124;2024-03-29T01:45:04;94883.38;;;5.82
71640;BMP280;60912;48.968;10.124;2024-03-29T01:47:29;94881.75;;;5.79
71640;BMP280;60912;48.968;10.124;2024-03-29T01:49:55;94879.03;;;5.79
71640;BMP280;60912;48.968;10.124;2024-03-29T01:52:20;94880.44;;;5.95
71640;BMP280;60912;48.968;10.124;2024-03-29T01:54:47;94887.69;;;6.16
71640;BMP280;60912;48.968;10.124;2024-03-29T01:57:13;94881.03;;;6.41
71640;BMP280;60912;48.968;10.124;2024-03-29T01:59:40;94871.06;;;6.61
71640;BMP280;60912;48.968;10.124;2024-03-29T02:02:08;94874.28;;;6.75
71640;BMP280;60912;48.968;10.124;2024-03-29T02:04:35;94877.31;;;6.86
71640;BMP280;60912;48.968;10.124;2024-03-29T02:07:01;94872.75;;;6.89
71640;BMP280;60912;48.968;10.124;2024-03-29T02:09:28;94874.94;;;6.91
71640;BMP280;60912;48.968;10.124;2024-03-29T02:11:54;94882.59;;;6.92
71640;BMP280;60912;48.968;10.124;2024-03-29T02:14:19;94868.66;;;6.98
71640;BMP280;60912;48.968;10.124;2024-03-29T02:16:44;94872.13;;;6.98
71640;BMP280;60912;48.968;10.124;2024-03-29T02:19:10;94871.94;;;7.04
71640;BMP280;60912;48.968;10.124;2024-03-29T02:21:37;94876.31;;;7.07
71640;BMP280;60912;48.968;10.124;2024-03-29T02:24:06;94884.81;;;7.11
71640;BMP280;60912;48.968;10.124;2024-03-29T02:26:33;94881.63;;;7.22
71640;BMP280;60912;48.968;10.124;2024-03-29T02:29:02;94868.47;;;7.28
71640;BMP280;60912;48.968;10.124;2024-03-29T02:31:27;94870.25;;;7.33
71640;BMP280;60912;48.968;10.124;2024-03-29T02:33:52;94858.50;;;7.40
71640;BMP280;60912;48.968;10.124;2024-03-29T02:36:18;94869.03;;;7.44
71640;BMP280;60912;48.968;10.124;2024-03-29T02:38:44;94861.66;;;7.54
71640;BMP280;60912;48.968;10.124;2024-03-29T02:41:09;94870.75;;;7.56
71640;BMP280;60912;48.968;10.124;2024-03-29T02:43:34;94855.78;;;7.57
71640;BMP280;60912;48.968;10.124;2024-03-29T02:45:59;94853.91;;;7.60
71640;BMP280;60912;48.968;10.124;2024-03-29T02:48:25;94853.69;;;7.65
71640;BMP280;60912;48.968;10.124;2024-03-29T02:50:50;94861.56;;;7.61
71640;BMP280;60912;48.968;10.124;2024-03-29T02:53:16;94864.31;;;7.61
71640;BMP280;60912;48.968;10.124;2024-03-29T02:55:41;94855.72;;;7.65
71640;BMP280;60912;48.968;10.124;2024-03-29T02:58:07;94866.19;;;7.76
71640;BMP280;60912;48.968;10.124;2024-03-29T03:00:33;94870.16;;;7.83
71640;BMP280;60912;48.968;10.124;2024-03-29T03:02:59;94852.41;;;7.84
71640;BMP280;60912;48.968;10.124;2024-03-29T03:05:24;94840.13;;;7.85
71640;BMP280;60912;48.968;10.124;2024-03-29T03:07:49;94839.59;;;7.86
71640;BMP280;60912;48.968;10.124;2024-03-29T03:10:33;94839.00;;;7.88
71640;BMP280;60912;48.968;10.124;2024-03-29T03:13:17;94845.06;;;7.86
71640;BMP280;60912;48.968;10.124;2024-03-29T03:15:43;94838.84;;;7.86
71640;BMP280;60912;48.968;10.124;2024-03-29T03:18:08;94851.41;;;7.89
71640;BMP280;60912;48.968;10.124;2024-03-29T03:20:33;94840.69;;;8.00
71640;BMP280;60912;48.968;10.124;2024-03-29T03:23:00;94846.97;;;8.10
71640;BMP280;60912;48.968;10.124;2024-03-29T03:25:27;94858.56;;;8.09
71640;BMP280;60912;48.968;10.124;2024-03-29T03:27:52;94848.28;;;8.09
71640;BMP280;60912;48.968;10.124;2024-03-29T03:30:18;94856.25;;;8.15
71640;BMP280;60912;48.968;10.124;2024-03-29T03:32:43;94839.47;;;8.11
71640;BMP280;60912;48.968;10.124;2024-03-29T03:35:09;94836.28;;;8.05
71640;BMP280;60912;48.968;10.124;2024-03-29T03:37:34;94849.81;;;8.03
71640;BMP280;60912;48.968;10.124;2024-03-29T03:39:59;94856.75;;;8.04
71640;BMP280;60912;48.968;10.124;2024-03-29T03:42:25;94859.16;;;8.00
71640;BMP280;60912;48.968;10.124;2024-03-29T03:44:50;94856.03;;;8.03
71640;BMP280;60912;48.968;10.124;2024-03-29T03:47:15;94861.19;;;7.99
71640;BMP280;60912;48.968;10.124;2024-03-29T03:49:41;94865.44;;;8.10
71640;BMP280;60912;48.968;10.124;2024-03-29T03:52:06;94860.13;;;8.12
71640;BMP280;60912;48.968;10.124;2024-03-29T03:54:32;94858.09;;;8.13
71640;BMP280;60912;48.968;10.124;2024-03-29T03:56:57;94875.28;;;8.13
71640;BMP280;60912;48.968;10.124;2024-03-29T03:59:23;94863.81;;;8.24
71640;BMP280;60912;48.968;10.124;2024-03-29T04:01:48;94866.34;;;8.30
71640;BMP280;60912;48.968;10.124;2024-03-29T04:04:17;94849.59;;;8.35
71640;BMP280;60912;48.968;10.124;2024-03-29T04:06:42;94859.44;;;8.38
71640;BMP280;60912;48.968;10.124;2024-03-29T04:09:08;94851.94;;;8.39
71640;BMP280;60912;48.968;10.124;2024-03-29T04:11:33;94861.56;;;8.47
71640;BMP280;60912;48.968;10.124;2024-03-29T04:13:59;94868.63;;;8.50
71640;BMP280;60912;48.968;10.124;2024-03-29T04:16:24;94862.16;;;8.56
71640;BMP280;60912;48.968;10.124;2024-03-29T04:18:50;94878.88;;;8.50
71640;BMP280;60912;48.968;10.124;2024-03-29T04:21:15;94890.91;;;8.55
71640;BMP280;60912;48.968;10.124;2024-03-29T04:23:40;94890.59;;;8.50
71640;BMP280;60912;48.968;10.124;2024-03-29T04:26:05;94893.47;;;8.52
71640;BMP280;60912;48.968;10.124;2024-03-29T04:28:31;94894.13;;;8.61
71640;BMP280;60912;48.968;10.124;2024-03-29T04:30:57;94899.91;;;8.65
71640;BMP280;60912;48.968;10.124;2024-03-29T04:33:23;94896.03;;;8.68
71640;BMP280;60912;48.968;10.124;2024-03-29T04:35:56;94886.81;;;8.73
71640;BMP280;60912;48.968;10.124;2024-03-29T04:38:21;94877.03;;;8.79
71640;BMP280;60912;48.968;10.124;2024-03-29T04:40:51;94899.41;;;8.76
71640;BMP280;60912;48.968;10.124;2024-03-29T04:43:17;94883.34;;;8.72
71640;BMP280;60912;48.968;10.124;2024-03-29T04:45:45;94897.06;;;8.72
71640;BMP280;60912;48.968;10.124;2024-03-29T04:48:11;94883.84;;;8.61
71640;BMP280;60912;48.968;10.124;2024-03-29T04:50:37;94871.56;;;8.62
71640;BMP280;60912;48.968;10.124;2024-03-29T04:53:02;94872.47;;;8.65
71640;BMP280;60912;48.968;10.124;2024-03-29T04:55:27;94853.16;;;8.72
71640;BMP280;60912;48.968;10.124;2024-03-29T04:57:53;94837.84;;;8.79
71640;BMP280;60912;48.968;10.124;2024-03-29T05:00:18;94856.56;;;8.90
71640;BMP280;60912;48.968;10.124;2024-03-29T05:02:44;94844.72;;;8.97
71640;BMP280;60912;48.968;10.124;2024-03-29T05:05:09;94842.25;;;9.01
71640;BMP280;60912;48.968;10.124;2024-03-29T05:07:34;94851.34;;;8.94
71640;BMP280;60912;48.968;10.124;2024-03-29T05:10:00;94855.84;;;8.99
71640;BMP280;60912;48.968;10.124;2024-03-29T05:12:25;94869.00;;;9.01
71640;BMP280;60912;48.968;10.124;2024-03-29T05:14:50;94889.44;;;9.07
71640;BMP280;60912;48.968;10.124;2024-03-29T05:17:16;94903.50;;;9.21
71640;BMP280;60912;48.968;10.124;2024-03-29T05:19:42;94914.06;;;9.24
71640;BMP280;60912;48.968;10.124;2024-03-29T05:22:08;94916.00;;;9.31
71640;BMP280;60912;48.968;10.124;2024-03-29T05:24:33;94952.16;;;9.37
71640;BMP280;60912;48.968;10.124;2024-03-29T05:26:59;94948.28;;;9.41
71640;BMP280;60912;48.968;10.124;2024-03-29T05:29:24;94938.31;;;9.45
71640;BMP280;60912;48.968;10.124;2024-03-29T05:31:49;94937.91;;;9.49
71640;BMP280;60912;48.968;10.124;2024-03-29T05:34:15;94921.84;;;9.55
71640;BMP280;60912;48.968;10.124;2024-03-29T05:36:40;94932.13;;;9.54
71640;BMP280;60912;48.968;10.124;2024-03-29T05:39:06;94927.03;;;9.51
71640;BMP280;60912;48.968;10.124;2024-03-29T05:41:32;94919.81;;;9.46
71640;BMP280;60912;48.968;10.124;2024-03-29T05:43:58;94895.16;;;9.38
71640;BMP280;60912;48.968;10.124;2024-03-29T05:46:23;94892.34;;;9.55
71640;BMP280;60912;48.968;10.124;2024-03-29T05:48:48;94859.91;;;9.54
71640;BMP280;60912;48.968;10.124;2024-03-29T05:51:14;94857.72;;;9.52
71640;BMP280;60912;48.968;10.124;2024-03-29T05:53:39;94861.22;;;9.53
71640;BMP280;60912;48.968;10.124;2024-03-29T05:56:05;94870.47;;;9.57
71640;BMP280;60912;48.968;10.124;2024-03-29T05:58:33;94879.75;;;9.62
71640;BMP280;60912;48.968;10.124;2024-03-29T06:00:58;94872.50;;;9.66
71640;BMP280;60912;48.968;10.124;2024-03-29T06:03:23;94879.03;;;9.61
71640;BMP280;60912;48.968;10.124;2024-03-29T06:05:49;94883.78;;;9.51
71640;BMP280;60912;48.968;10.124;2024-03-29T06:08:14;94885.78;;;9.51
71640;BMP280;60912;48.968;10.124;2024-03-29T06:10:39;94894.03;;;9.41
71640;BMP280;60912;48.968;10.124;2024-03-29T06:13:04;94886.06;;;9.35
71640;BMP280;60912;48.968;10.124;2024-03-29T06:15:35;94883.56;;;9.30
71640;BMP280;60912;48.968;10.124;2024-03-29T06:18:19;94897.34;;;9.40
71640;BMP280;60912;48.968;10.124;2024-03-29T06:20:46;94888.34;;;9.29
71640;BMP280;60912;48.968;10.124;2024-03-29T06:23:12;94875.72;;;9.07
71640;BMP280;60912;48.968;10.124;2024-03-29T06:25:38;94888.72;;;9.07
71640;BMP280;60912;48.968;10.124;2024-03-29T06:28:04;94897.38;;;9.03
71640;BMP280;60912;48.968;10.124;2024-03-29T06:30:29;94889.34;;;8.88
71640;BMP280;60912;48.968;10.124;2024-03-29T06:32:55;94888.53;;;8.68
71640;BMP280;60912;48.968;10.124;2024-03-29T06:35:20;94888.94;;;8.65
71640;BMP280;60912;48.968;10.124;2024-03-29T06:37:47;94909.44;;;8.64
71640;BMP280;60912;48.968;10.124;2024-03-29T06:40:12;94911.91;;;8.42
71640;BMP280;60912;48.968;10.124;2024-03-29T06:42:38;94906.53;;;8.35
71640;BMP280;60912;48.968;10.124;2024-03-29T06:45:04;94885.19;;;8.43
71640;BMP280;60912;48.968;10.124;2024-03-29T06:47:31;94892.56;;;8.40
71640;BMP280;60912;48.968;10.124;2024-03-29T06:49:56;94885.53;;;8.47
71640;BMP280;60912;48.968;10.124;2024-03-29T06:52:22;94888.81;;;8.45
71640;BMP280;60912;48.968;10.124;2024-03-29T06:54:47;94889.56;;;8.46
71640;BMP280;60912;48.968;10.124;2024-03-29T06:57:12;94880.84;;;8.40
71640;BMP280;60912;48.968;10.124;2024-03-29T06:59:41;94878.72;;;8.48
71640;BMP280;60912;48.968;10.124;2024-03-29T07:02:06;94872.16;;;8.61
71640;BMP280;60912;48.968;10.124;2024-03-29T07:04:31;94878.13;;;8.67
71640;BMP280;60912;48.968;10.124;2024-03-29T07:06:58;94879.06;;;8.79
71640;BMP280;60912;48.968;10.124;2024-03-29T07:09:24;94887.69;;;8.75
71640;BMP280;60912;48.968;10.124;2024-03-29T07:11:50;94884.13;;;8.82
71640;BMP280;60912;48.968;10.124;2024-03-29T07:14:17;94890.16;;;8.81
71640;BMP280;60912;48.968;10.124;2024-03-29T07:16:45;94888.63;;;8.87
71640;BMP280;60912;48.968;10.124;2024-03-29T07:19:11;94879.56;;;8.94
71640;BMP280;60912;48.968;10.124;2024-03-29T07:21:43;94881.41;;;8.92
71640;BMP280;60912;48.968;10.124;2024-03-29T07:24:08;94887.47;;;8.90
71640;BMP280;60912;48.968;10.124;2024-03-29T07:26:34;94886.84;;;8.82
71640;BMP280;60912;48.968;10.124;2024-03-29T07:29:00;94882.81;;;8.83
71640;BMP280;60912;48.968;10.124;2024-03-29T07:31:26;94874.28;;;8.79
71640;BMP280;60912;48.968;10.124;2024-03-29T07:33:51;94874.94;;;8.97
71640;BMP280;60912;48.968;10.124;2024-03-29T07:36:16;94866.75;;;9.07
71640;BMP280;60912;48.968;10.124;2024-03-29T07:38:42;94872.00;;;9.22
71640;BMP280;60912;48.968;10.124;2024-03-29T07:41:09;94864.19;;;9.28
71640;BMP280;60912;48.968;10.124;2024-03-29T07:43:51;94858.44;;;9.43
71640;BMP280;60912;48.968;10.124;2024-03-29T07:46:17;94858.91;;;9.59
71640;BMP280;60912;48.968;10.124;2024-03-29T07:48:43;94844.59;;;9.79
71640;BMP280;60912;48.968;10.124;2024-03-29T07:51:08;94845.72;;;9.76
71640;BMP280;60912;48.968;10.124;2024-03-29T07:53:33;94854.44;;;9.73
71640;BMP280;60912;48.968;10.124;2024-03-29T07:55:59;94862.81;;;9.65
71640;BMP280;60912;48.968;10.124;2024-03-29T07:58:24;94870.97;;;9.73
71640;BMP280;60912;48.968;10.124;2024-03-29T08:00:51;94866.75;;;9.72
71640;BMP280;60912;48.968;10.124;2024-03-29T08:03:17;94863.53;;;9.56
71640;BMP280;60912;48.968;10.124;2024-03-29T08:05:42;94868.44;;;9.58
71640;BMP280;60912;48.968;10.124;2024-03-29T08:08:07;94871.38;;;9.69
71640;BMP280;60912;48.968;10.124;2024-03-29T08:10:33;94881.34;;;9.74
71640;BMP280;60912;48.968;10.124;2024-03-29T08:12:58;94893.22;;;9.67
71640;BMP280;60912;48.968;10.124;2024-03-29T08:15:26;94904.91;;;9.58
71640;BMP280;60912;48.968;10.124;2024-03-29T08:17:52;94903.91;;;9.63
71640;BMP280;60912;48.968;10.124;2024-03-29T08:20:18;94919.97;;;9.67
71640;BMP280;60912;48.968;10.124;2024-03-29T08:22:44;94942.88;;;9.69
71640;BMP280;60912;48.968;10.124;2024-03-29T08:25:09;94955.91;;;9.69
71640;BMP280;60912;48.968;10.124;2024-03-29T08:27:35;94956.16;;;9.63
71640;BMP280;60912;48.968;10.124;2024-03-29T08:30:00;94963.09;;;9.55
71640;BMP280;60912;48.968;10.124;2024-03-29T08:32:25;94972.03;;;9.46
71640;BMP280;60912;48.968;10.124;2024-03-29T08:34:50;94973.91;;;9.43
71640;BMP280;60912;48.968;10.124;2024-03-29T08:37:17;94976.38;;;9.49
71640;BMP280;60912;48.968;10.124;2024-03-29T08:39:43;94978.59;;;9.60
71640;BMP280;60912;48.968;10.124;2024-03-29T08:42:08;94985.16;;;9.74
71640;BMP280;60912;48.968;10.124;2024-03-29T08:44:37;94977.22;;;9.88
71640;BMP280;60912;48.968;10.124;2024-03-29T08:47:02;94982.16;;;10.08
71640;BMP280;60912;48.968;10.124;2024-03-29T08:49:28;94970.28;;;10.25
71640;BMP280;60912;48.968;10.124;2024-03-29T08:51:54;94971.47;;;10.41
71640;BMP280;60912;48.968;10.124;2024-03-29T08:54:20;94982.75;;;10.55
71640;BMP280;60912;48.968;10.124;2024-03-29T08:56:45;94989.00;;;10.65
71640;BMP280;60912;48.968;10.124;2024-03-29T08:59:11;94973.63;;;10.81
71640;BMP280;60912;48.968;10.124;2024-03-29T09:01:45;94983.44;;;10.94
71640;BMP280;60912;48.968;10.124;2024-03-29T09:04:13;94992.97;;;11.02
71640;BMP280;60912;48.968;10.124;2024-03-29T09:06:40;94981.63;;;11.18
71640;BMP280;60912;48.968;10.124;2024-03-29T09:09:06;94993.63;;;11.32
71640;BMP280;60912;48.968;10.124;2024-03-29T09:11:31;94983.00;;;11.38
71640;BMP280;60912;48.968;10.124;2024-03-29T09:13:57;94999.72;;;11.30
71640;BMP280;60912;48.968;10.124;2024-03-29T09:16:24;94994.66;;;11.27
71640;BMP280;60912;48.968;10.124;2024-03-29T09:18:50;95000.97;;;11.39
71640;BMP280;60912;48.968;10.124;2024-03-29T09:21:16;95002.25;;;11.57
71640;BMP280;60912;48.968;10.124;2024-03-29T09:23:41;95003.34;;;11.64
71640;BMP280;60912;48.968;10.124;2024-03-29T09:26:07;95018.78;;;11.17
71640;BMP280;60912;48.968;10.124;2024-03-29T09:28:33;95018.94;;;11.09
71640;BMP280;60912;48.968;10.124;2024-03-29T09:31:00;94999.78;;;11.21
71640;BMP280;60912;48.968;10.124;2024-03-29T09:33:26;94973.69;;;11.43
71640;BMP280;60912;48.968;10.124;2024-03-29T09:35:51;94997.72;;;11.52
71640;BMP280;60912;48.968;10.124;2024-03-29T09:38:18;94966.09;;;11.53
71640;BMP280;60912;48.968;10.124;2024-03-29T09:40:44;94993.31;;;11.68
71640;BMP280;60912;48.968;10.124;2024-03-29T09:43:10;94978.66;;;11.66
71640;BMP280;60912;48.968;10.124;2024-03-29T09:45:35;94970.78;;;11.50
71640;BMP280;60912;48.968;10.124;2024-03-29T09:48:08;94954.69;;;11.68
71640;BMP280;60912;48.968;10.124;2024-03-29T09:50:35;94972.38;;;11.96
71640;BMP280;60912;48.968;10.124;2024-03-29T09:53:04;94972.88;;;12.14
71640;BMP280;60912;48.968;10.124;2024-03-29T09:55:30;94968.69;;;12.24
71640;BMP280;60912;48.968;10.124;2024-03-29T09:57:57;94971.69;;;12.50
71640;BMP280;60912;48.968;10.124;2024-03-29T10:00:23;94969.69;;;12.62
71640;BMP280;60912;48.968;10.124;2024-03-29T10:02:50;94948.53;;;12.66
71640;BMP280;60912;48.968;10.124;2024-03-29T10:05:15;94949.22;;;12.55
71640;BMP280;60912;48.968;10.124;2024-03-29T10:07:42;94965.47;;;12.28
71640;BMP280;60912;48.968;10.124;2024-03-29T10:10:09;95005.31;;;12.04
71640;BMP280;60912;48.968;10.124;2024-03-29T10:12:36;95005.13;;;12.11
71640;BMP280;60912;48.968;10.124;2024-03-29T10:15:03;95008.06;;;12.04
71640;BMP280;60912;48.968;10.124;2024-03-29T10:17:36;95009.38;;;12.03
71640;BMP280;60912;48.968;10.124;2024-03-29T10:20:04;94998.81;;;11.99
71640;BMP280;60912;48.968;10.124;2024-03-29T10:22:30;94968.31;;;11.97
71640;BMP280;60912;48.968;10.124;2024-03-29T10:24:58;94962.91;;;11.57
71640;BMP280;60912;48.968;10.124;2024-03-29T10:27:26;94952.44;;;11.55
71640;BMP280;60912;48.968;10.124;2024-03-29T10:29:53;94949.09;;;11.57
71640;BMP280;60912;48.968;10.124;2024-03-29T10:32:18;94940.19;;;11.37
71640;BMP280;60912;48.968;10.124;2024-03-29T10:34:43;94946.91;;;11.34
71640;BMP280;60912;48.968;10.124;2024-03-29T10:37:09;94917.25;;;11.03
71640;BMP280;60912;48.968;10.124;2024-03-29T10:39:36;94914.44;;;11.23
71640;BMP280;60912;48.968;10.124;2024-03-29T10:42:01;94910.31;;;11.33
71640;BMP280;60912;48.968;10.124;2024-03-29T10:44:28;94915.38;;;11.37
71640;BMP280;60912;48.968;10.124;2024-03-29T10:46:56;94910.69;;;11.49
71640;BMP280;60912;48.968;10.124;2024-03-29T10:49:23;94917.38;;;11.46
71640;BMP280;60912;48.968;10.124;2024-03-29T10:51:49;94909.19;;;11.58
71640;BMP280;60912;48.968;10.124;2024-03-29T10:54:16;94915.41;;;11.58
71640;BMP280;60912;48.968;10.124;2024-03-29T10:56:43;94913.31;;;11.68
71640;BMP280;60912;48.968;10.124;2024-03-29T10:59:21;94935.72;;;11.63
71640;BMP280;60912;48.968;10.124;2024-03-29T11:01:59;94942.75;;;11.75
71640;BMP280;60912;48.968;10.124;2024-03-29T11:04:29;94949.16;;;11.68
71640;BMP280;60912;48.968;10.124;2024-03-29T11:07:01;94948.06;;;11.83
71640;BMP280;60912;48.968;10.124;2024-03-29T11:09:31;94949.84;;;12.00
71640;BMP280;60912;48.968;10.124;2024-03-29T11:12:01;94947.03;;;12.09
71640;BMP280;60912;48.968;10.124;2024-03-29T11:14:40;94964.81;;;12.18
71640;BMP280;60912;48.968;10.124;2024-03-29T11:17:07;94962.19;;;12.20
71640;BMP280;60912;48.968;10.124;2024-03-29T11:19:33;94969.31;;;12.23
71640;BMP280;60912;48.968;10.124;2024-03-29T11:21:58;94948.25;;;12.18
71640;BMP280;60912;48.968;10.124;2024-03-29T11:24:26;94946.19;;;11.85
71640;BMP280;60912;48.968;10.124;2024-03-29T11:26:53;94940.16;;;11.89
71640;BMP280;60912;48.968;10.124;2024-03-29T11:29:22;94942.34;;;11.90
71640;BMP280;60912;48.968;10.124;2024-03-29T11:31:56;94940.25;;;11.79
71640;BMP280;60912;48.968;10.124;2024-03-29T11:34:21;94931.72;;;11.75
71640;BMP280;60912;48.968;10.124;2024-03-29T11:36:46;94947.34;;;11.51
71640;BMP280;60912;48.968;10.124;2024-03-29T11:39:22;94950.75;;;11.50
71640;BMP280;60912;48.968;10.124;2024-03-29T11:41:48;94940.25;;;11.58
71640;BMP280;60912;48.968;10.124;2024-03-29T11:44:14;94939.31;;;11.65
71640;BMP280;60912;48.968;10.124;2024-03-29T11:46:39;94940.16;;;11.68
71640;BMP280;60912;48.968;10.124;2024-03-29T11:49:05;94933.94;;;11.88
71640;BMP280;60912;48.968;10.124;2024-03-29T11:51:30;94930.53;;;12.00
71640;BMP280;60912;48.968;10.124;2024-03-29T11:53:56;94924.06;;;12.07
71640;BMP280;60912;48.968;10.124;2024-03-29T11:56:22;94913.25;;;11.99
71640;BMP280;60912;48.968;10.124;2024-03-29T11:58:48;94909.22;;;11.90
71640;BMP280;60912;48.968;10.124;2024-03-29T12:01:14;94903.84;;;12.14
71640;BMP280;60912;48.968;10.124;2024-03-29T12:03:41;94892.88;;;12.37
71640;BMP280;60912;48.968;10.124;2024-03-29T12:06:07;94888.53;;;12.46
71640;BMP280;60912;48.968;10.124;2024-03-29T12:08:38;94884.97;;;12.55
71640;BMP280;60912;48.968;10.124;2024-03-29T12:11:04;94875.22;;;12.65
71640;BMP280;60912;48.968;10.124;2024-03-29T12:13:30;94884.25;;;12.54
71640;BMP280;60912;48.968;10.124;2024-03-29T12:15:56;94888.81;;;12.50
71640;BMP280;60912;48.968;10.124;2024-03-29T12:18:22;94878.53;;;12.29
71640;BMP280;60912;48.968;10.124;2024-03-29T12:20:49;94886.34;;;12.32
71640;BMP280;60912;48.968;10.124;2024-03-29T12:23:19;94887.81;;;12.45
71640;BMP280;60912;48.968;10.124;2024-03-29T12:25:46;94896.97;;;12.59
71640;BMP280;60912;48.968;10.124;2024-03-29T12:28:13;94890.56;;;12.90
71640;BMP280;60912;48.968;10.124;2024-03-29T12:30:44;94892.47;;;12.99
71640;BMP280;60912;48.968;10.124;2024-03-29T12:33:17;94887.91;;;13.15
71640;BMP280;60912;48.968;10.124;2024-03-29T12:35:51;94889.22;;;13.37
71640;BMP280;60912;48.968;10.124;2024-03-29T12:38:21;94902.09;;;13.09
71640;BMP280;60912;48.968;10.124;2024-03-29T12:40:48;94890.56;;;13.24
71640;BMP280;60912;48.968;10.124;2024-03-29T12:43:15;94900.88;;;13.47
71640;BMP280;60912;48.968;10.124;2024-03-29T12:45:42;94898.41;;;13.65
71640;BMP280;60912;48.968;10.124;2024-03-29T12:48:11;94898.44;;;13.53
71640;BMP280;60912;48.968;10.124;2024-03-29T12:50:40;94892.13;;;13.88
71640;BMP280;60912;48.968;10.124;2024-03-29T12:53:07;94895.81;;;13.92
71640;BMP280;60912;48.968;10.124;2024-03-29T12:55:34;94890.66;;;13.87
71640;BMP280;60912;48.968;10.124;2024-03-29T12:58:01;94882.59;;;13.91
71640;BMP280;60912;48.968;10.124;2024-03-29T13:00:30;94883.69;;;13.86
71640;BMP280;60912;48.968;10.124;2024-03-29T13:02:55;94880.47;;;14.03
71640;BMP280;60912;48.968;10.124;2024-03-29T13:05:21;94883.84;;;14.01
71640;BMP280;60912;48.968;10.124;2024-03-29T13:07:46;94879.16;;;14.29
71640;BMP280;60912;48.968;10.124;2024-03-29T13:10:12;94878.91;;;14.50
71640;BMP280;60912;48.968;10.124;2024-03-29T13:12:45;94868.41;;;14.49
71640;BMP280;60912;48.968;10.124;2024-03-29T13:15:24;94867.69;;;14.87
71640;BMP280;60912;48.968;10.124;2024-03-29T13:17:51;94859.97;;;15.40
71640;BMP280;60912;48.968;10.124;2024-03-29T13:20:17;94862.44;;;15.34
71640;BMP280;60912;48.968;10.124;2024-03-29T13:22:44;94866.94;;;15.41
71640;BMP280;60912;48.968;10.124;2024-03-29T13:25:14;94858.09;;;15.31
71640;BMP280;60912;48.968;10.124;2024-03-29T13:27:40;94869.84;;;15.16
71640;BMP280;60912;48.968;10.124;2024-03-29T13:30:06;94869.53;;;15.10
71640;BMP280;60912;48.968;10.124;2024-03-29T13:32:35;94875.19;;;14.98
71640;BMP280;60912;48.968;10.124;2024-03-29T13:35:02;94884.03;;;14.95
71640;BMP280;60912;48.968;10.124;2024-03-29T13:37:30;94882.34;;;14.90
71640;BMP280;60912;48.968;10.124;2024-03-29T13:39:56;94889.56;;;14.95
71640;BMP280;60912;48.968;10.124;2024-03-29T13:42:21;94899.53;;;15.13
71640;BMP280;60912;48.968;10.124;2024-03-29T13:44:51;94902.59;;;15.47
71640;BMP280;60912;48.968;10.124;2024-03-29T13:47:17;94908.81;;;15.88
71640;BMP280;60912;48.968;10.124;2024-03-29T13:49:43;94919.94;;;16.33
71640;BMP280;60912;48.968;10.124;2024-03-29T13:52:08;94917.50;;;16.55
71640;BMP280;60912;48.968;10.124;2024-03-29T13:54:34;94920.00;;;16.64
71640;BMP280;60912;48.968;10.124;2024-03-29T13:57:00;94918.84;;;16.69
71640;BMP280;60912;48.968;10.124;2024-03-29T13:59:26;94922.53;;;16.90